Aviation Digital Data Service (ADDS)

Output produced by METARs form (1946 UTC 31 August 2015)
found at http://aviationweather.gov/adds/metars/
 
KAOO 311746Z 3118/0118 25006KT 3SM -SHRA VCTS BKN035CB 
     TEMPO 3118/3119 1SM -TSRA OVC030CB 
     FM311900 25006KT 6SM HZ VCSH BKN040 
     FM010100 00000KT 6SM BR FEW040 
     FM010600 24002KT 4SM BR SCT090 
     FM011300 29005KT P6SM SCT040 BKN090